首页
METAR-TAF:

METAR-TAF

机场 :

空军基地

Landivisiau, 法国

纬度: 48-31N, 经度: 004-09W, 海拔: 106米

当前天气观测

该预报发布于34分钟前的21:30 UTC
风速15节,风向
温度 14°C
湿度 94%
气压 1004 hPa
能見度: 4400
小雨, 轻雾

METAR: LFRJ 152130Z AUTO 19015KT 4400 -RA BR BKN006/// OVC010/// ///TCU 14/13 Q1004

时间: 00:04 (22:04 UTC)

预报

该预报发布于2小时和4分钟前的20:00 UTC
预报有效从15日的 21点(UTC)到 16日的 06点(UTC)
风速11节,风向,有时为22节阵风
能見度: 6000
多云层高于800英尺
多云层高于1200英尺
多云层高于1800英尺
成为
从 15日的 22点(UTC)到 15日的 24点(UTC)
风速16节,风向西南,有时为32节阵风
多云层高于500英尺
短暂存在
从 16日的 01点(UTC)到 16日的 03点(UTC)
能見度: 4000
阴天层高于300英尺
毛毛雨
成为
从 16日的 03点(UTC)到 16日的 05点(UTC)
风速5节,风向南转西南
能见度10公里或以上
多云层高于2700英尺

TAF: LFRJ 152000Z 1521/1606 17011G22KT 6000 RA BKN008 BKN012 BKN018 BECMG 1522/1524 22016G32KT BKN005 TEMPO 1601/1603 4000 DZ OVC003 BECMG 1603/1605 21005KT 9999 NSW BKN027

超过4000个机场的气象观测和天气预报(METAR&TAF报告)。

可查询的气象台以黄色和红色小点在地图上表示。

将鼠标移到小点上方,可查看气象台名称。

然后点击查看天气观测和预报。

如需切换地图:点击带黑十字的绿色按钮放大地图;点击带横线的绿色按钮缩小地图;或者点击绿色箭头查看邻近地区的地图。


METAR-TAF: